Time;durP1;ratioP1;P1;durP2;ratioP2;P2;SDS_P1;SDS_P2;PMS_P1;PMS_P2;Temp;Humidity;BMP_temperature;BMP_pressure;BME280_temperature;BME280_humidity;BME280_pressure;Samples;Min_cycle;Max_cycle;Signal;HPM_P1;HPM_P2
2021/10/15 00:00:42;;;;;;;8.30;3.67;;;;;;;-144.51;100.00;69251.94;4900443;29;20044;-80
2021/10/15 00:03:26;;;;;;;9.32;4.43;;;;;;;-144.51;100.00;69251.94;4922603;29;20044;-81
2021/10/15 00:06:11;;;;;;;;;;;;;;;-144.51;100.00;69251.94;4928599;29;20055;-81
2021/10/15 00:08:56;;;;;;;13.90;5.45;;;;;;;-144.51;100.00;69251.94;4925696;29;19916;-81
2021/10/15 00:11:41;;;;;;;12.63;4.93;;;;;;;-144.51;100.00;69251.94;4893202;29;20052;-81
2021/10/15 00:14:26;;;;;;;7.00;4.53;;;;;;;-144.51;100.00;69251.94;4903622;29;20040;-81
2021/10/15 00:17:11;;;;;;;5.50;4.22;;;;;;;-144.51;100.00;69251.94;4931341;29;20052;-81
2021/10/15 00:19:56;;;;;;;10.07;5.50;;;;;;;-144.51;100.00;69251.94;4910916;29;20040;-80
2021/10/15 00:22:41;;;;;;;7.38;5.10;;;;;;;-144.51;100.00;69251.94;4916149;29;20561;-79
2021/10/15 00:25:25;;;;;;;10.20;6.22;;;;;;;-144.51;100.00;69251.94;4904079;29;20041;-80
2021/10/15 00:28:10;;;;;;;12.70;4.50;;;;;;;-144.51;100.00;69251.94;4922964;29;20509;-80
2021/10/15 00:30:57;;;;;;;9.35;4.25;;;;;;;-144.51;100.00;69251.94;4898396;29;20048;-81
2021/10/15 00:33:42;;;;;;;10.70;6.25;;;;;;;-144.51;100.00;69251.94;4914069;29;20040;-81
2021/10/15 00:36:27;;;;;;;6.38;3.92;;;;;;;-144.51;100.00;69251.94;4917247;29;20051;-80
2021/10/15 00:39:12;;;;;;;10.82;4.38;;;;;;;-144.51;100.00;69251.94;4903877;29;20041;-82
2021/10/15 00:41:57;;;;;;;5.97;3.50;;;;;;;-144.51;100.00;69251.94;4909307;29;20048;-81
2021/10/15 00:44:43;;;;;;;7.38;3.78;;;;;;;-144.51;100.00;69251.94;4931514;29;20048;-83
2021/10/15 00:47:28;;;;;;;9.13;4.70;;;;;;;-144.51;100.00;69251.94;4915766;29;20036;-81
2021/10/15 00:50:12;;;;;;;9.52;5.97;;;;;;;-144.51;100.00;69251.94;4925075;29;20052;-81
2021/10/15 00:52:57;;;;;;;15.75;6.00;;;;;;;-144.51;100.00;69251.94;4915292;29;20053;-81
2021/10/15 00:55:43;;;;;;;7.88;4.88;;;;;;;-144.51;100.00;69251.94;4918927;29;20569;-81
2021/10/15 00:58:28;;;;;;;13.68;4.88;;;;;;;-144.51;100.00;69251.94;4905773;29;20036;-81
2021/10/15 01:01:13;;;;;;;8.73;5.50;;;;;;;-144.51;100.00;69251.94;4905514;29;20048;-81
2021/10/15 01:03:59;;;;;;;8.88;3.95;;;;;;;-144.51;100.00;69251.94;4909160;29;20542;-83
2021/10/15 01:06:44;;;;;;;11.13;5.15;;;;;;;-144.51;100.00;69251.94;4909401;29;20048;-81
2021/10/15 01:09:29;;;;;;;;;;;;;;;-144.51;100.00;69251.94;4925057;29;20048;-82
2021/10/15 01:12:14;;;;;;;10.80;5.45;;;;;;;-144.51;100.00;69251.94;4907939;29;19915;-81
2021/10/15 01:14:59;;;;;;;9.48;5.45;;;;;;;-144.51;100.00;69251.94;4918107;29;20044;-81
2021/10/15 01:17:44;;;;;;;8.70;5.15;;;;;;;-144.51;100.00;69251.94;4924384;29;20044;-81
2021/10/15 01:20:28;;;;;;;7.68;4.80;;;;;;;-144.51;100.00;69251.94;4909290;29;20056;-80
2021/10/15 01:23:14;;;;;;;10.18;5.35;;;;;;;-144.51;100.00;69251.94;4916639;29;20048;-81
2021/10/15 01:25:58;;;;;;;11.23;5.88;;;;;;;-144.51;100.00;69251.94;4920114;29;20040;-81
2021/10/15 01:28:43;;;;;;;;;;;;;;;-144.51;100.00;69251.94;4906465;29;20044;-81
2021/10/15 01:31:28;;;;;;;8.82;4.72;;;;;;;-144.51;100.00;69251.94;4908787;29;19926;-81
2021/10/15 01:34:13;;;;;;;8.00;3.33;;;;;;;-144.51;100.00;69251.94;4893857;29;20052;-81
2021/10/15 01:36:57;;;;;;;9.17;5.10;;;;;;;-144.51;100.00;69251.94;4922533;29;20044;-81
2021/10/15 01:39:42;;;;;;;7.03;3.17;;;;;;;-144.51;100.00;69251.94;4907286;29;20289;-80
2021/10/15 01:45:32;;;;;;;7.03;5.13;;;;;;;-144.51;100.00;69251.94;4911473;29;20052;-81
2021/10/15 01:48:17;;;;;;;7.40;4.60;;;;;;;-144.51;100.00;69251.94;4906602;29;20037;-80
2021/10/15 01:51:01;;;;;;;6.80;3.13;;;;;;;-144.51;100.00;69251.94;4928878;29;20045;-81
2021/10/15 01:53:46;;;;;;;;;;;;;;;-144.51;100.00;69251.94;4916811;29;20048;-81
2021/10/15 01:56:32;;;;;;;10.13;4.97;;;;;;;-144.51;100.00;69251.94;4911441;29;19919;-80
2021/10/15 01:59:17;;;;;;;14.85;6.20;;;;;;;-144.51;100.00;69251.94;4906736;29;20041;-80
2021/10/15 02:02:01;;;;;;;8.57;4.57;;;;;;;-144.51;100.00;69251.94;4931761;29;20043;-80
2021/10/15 02:04:46;;;;;;;9.45;3.63;;;;;;;-144.51;100.00;69251.94;4910880;29;20041;-80
2021/10/15 02:07:32;;;;;;;8.15;4.15;;;;;;;-144.51;100.00;69251.94;4924313;29;20049;-80
2021/10/15 02:10:18;;;;;;;9.35;4.30;;;;;;;-144.51;100.00;69251.94;4915062;29;20493;-81
2021/10/15 02:13:04;;;;;;;11.13;4.53;;;;;;;-144.51;100.00;69251.94;4906773;29;20052;-82
2021/10/15 02:15:49;;;;;;;12.35;3.67;;;;;;;-144.51;100.00;69251.94;4913671;29;20056;-81
2021/10/15 02:18:33;;;;;;;8.43;4.38;;;;;;;-144.51;100.00;69251.94;4892574;29;20418;-80
2021/10/15 02:21:19;;;;;;;9.05;4.82;;;;;;;-144.51;100.00;69251.94;4916842;29;20040;-80
2021/10/15 02:24:04;;;;;;;10.43;3.30;;;;;;;-144.51;100.00;69251.94;4924482;29;20067;-81
2021/10/15 02:26:49;;;;;;;;;;;;;;;-144.51;100.00;69251.94;4906023;29;20041;-80
2021/10/15 02:29:34;;;;;;;7.03;4.15;;;;;;;-144.51;100.00;69251.94;4905997;29;19920;-80
2021/10/15 02:32:19;;;;;;;;;;;;;;;-144.51;100.00;69251.94;4921695;29;20056;-81
2021/10/15 02:35:05;;;;;;;8.13;4.25;;;;;;;-144.51;100.00;69251.94;4921224;29;20273;-80
2021/10/15 02:37:50;;;;;;;7.50;4.78;;;;;;;-144.51;100.00;69251.94;4894877;29;20036;-81
2021/10/15 02:40:35;;;;;;;6.15;3.90;;;;;;;-144.51;100.00;69251.94;4913976;29;20044;-80
2021/10/15 02:43:19;;;;;;;8.57;5.03;;;;;;;-144.51;100.00;69251.94;4925589;29;20044;-80
2021/10/15 02:46:04;;;;;;;8.65;4.22;;;;;;;-144.51;100.00;69251.94;4924796;29;20519;-79
2021/10/15 02:48:48;;;;;;;9.57;5.32;;;;;;;-144.51;100.00;69251.94;4920505;29;20041;-80
2021/10/15 02:51:34;;;;;;;13.07;5.55;;;;;;;-144.51;100.00;69251.94;4911140;29;20044;-81
2021/10/15 02:54:18;;;;;;;11.90;5.35;;;;;;;-144.51;100.00;69251.94;4923503;29;20048;-81
2021/10/15 02:57:04;;;;;;;9.13;5.43;;;;;;;-144.51;100.00;69251.94;4928778;29;20052;-81
2021/10/15 02:59:49;;;;;;;13.02;4.10;;;;;;;-144.51;100.00;69251.94;4923787;29;20040;-82
2021/10/15 03:02:34;;;;;;;8.40;3.78;;;;;;;-144.51;100.00;69251.94;4928968;29;20040;-81
2021/10/15 03:05:19;;;;;;;5.43;4.03;;;;;;;-144.51;100.00;69251.94;4920247;29;20040;-81
2021/10/15 03:08:04;;;;;;;5.53;4.03;;;;;;;-144.51;100.00;69251.94;4914808;29;20044;-81
2021/10/15 03:10:50;;;;;;;8.30;5.35;;;;;;;-144.51;100.00;69251.94;4912033;29;20056;-79
2021/10/15 03:13:34;;;;;;;9.23;5.40;;;;;;;-144.51;100.00;69251.94;4907789;29;20814;-79
2021/10/15 03:16:20;;;;;;;6.88;3.97;;;;;;;-144.51;100.00;69251.94;4910614;29;20044;-80
2021/10/15 03:19:04;;;;;;;14.10;4.00;;;;;;;-144.51;100.00;69251.94;4909994;29;20414;-80
2021/10/15 03:21:49;;;;;;;11.20;4.82;;;;;;;-144.51;100.00;69251.94;4912539;29;20048;-80
2021/10/15 03:24:34;;;;;;;;;;;;;;;-144.51;100.00;69251.94;4922901;29;20048;-80
2021/10/15 03:27:19;;;;;;;11.25;5.90;;;;;;;-144.51;100.00;69251.94;4922155;29;19915;-81
2021/10/15 03:30:06;;;;;;;8.93;4.38;;;;;;;-144.51;100.00;69251.94;4923178;29;20043;-81
2021/10/15 03:32:51;;;;;;;9.98;5.68;;;;;;;-144.51;100.00;69251.94;4923759;29;20044;-80
2021/10/15 03:35:36;;;;;;;7.78;3.95;;;;;;;-144.51;100.00;69251.94;4920823;29;20513;-80
2021/10/15 03:38:20;;;;;;;8.50;4.60;;;;;;;-144.51;100.00;69251.94;4904519;29;20044;-80
2021/10/15 03:41:05;;;;;;;9.27;5.10;;;;;;;-144.51;100.00;69251.94;4914020;29;20519;-80
2021/10/15 03:43:50;;;;;;;12.23;4.05;;;;;;;-144.51;100.00;69251.94;4918889;29;20081;-81
2021/10/15 03:46:35;;;;;;;8.57;4.45;;;;;;;-144.51;100.00;69251.94;4921898;29;20056;-80
2021/10/15 03:49:19;;;;;;;8.38;5.03;;;;;;;-144.51;100.00;69251.94;4919977;23;20052;-78
2021/10/15 03:52:04;;;;;;;9.23;5.90;;;;;;;-144.51;100.00;69251.94;4905044;29;20417;-78
2021/10/15 03:54:49;;;;;;;7.80;4.93;;;;;;;-144.51;100.00;69251.94;4910787;29;20673;-78
2021/10/15 03:57:37;;;;;;;11.93;5.43;;;;;;;-144.51;100.00;69251.94;4882991;29;20037;-78
2021/10/15 04:00:22;;;;;;;11.02;6.25;;;;;;;-144.51;100.00;69251.94;4894200;29;20040;-80
2021/10/15 04:03:07;;;;;;;6.95;4.38;;;;;;;-144.51;100.00;69251.94;4900197;29;20044;-80
2021/10/15 04:05:52;;;;;;;6.80;3.70;;;;;;;-144.51;100.00;69251.94;4894896;29;20044;-79
2021/10/15 04:08:36;;;;;;;14.87;6.07;;;;;;;-144.51;100.00;69251.94;4896602;29;20041;-79
2021/10/15 04:11:21;;;;;;;7.25;4.45;;;;;;;-144.51;100.00;69251.94;4895282;29;20292;-80
2021/10/15 04:14:07;;;;;;;11.05;6.22;;;;;;;-144.51;100.00;69251.94;4893053;29;20048;-79
2021/10/15 04:16:51;;;;;;;19.67;11.25;;;;;;;-144.51;100.00;69251.94;4903721;29;20048;-80
2021/10/15 04:19:36;;;;;;;7.55;4.95;;;;;;;-144.51;100.00;69251.94;4889584;29;20414;-80
2021/10/15 04:22:24;;;;;;;10.48;4.40;;;;;;;-144.51;100.00;69251.94;4900769;29;20052;-79
2021/10/15 04:25:09;;;;;;;14.52;6.38;;;;;;;-144.51;100.00;69251.94;4893578;29;20548;-80
2021/10/15 04:27:54;;;;;;;18.15;6.72;;;;;;;-144.51;100.00;69251.94;4892193;29;20502;-80
2021/10/15 04:30:39;;;;;;;13.82;6.75;;;;;;;-144.51;100.00;69251.94;4878735;29;20056;-80
2021/10/15 04:33:24;;;;;;;15.65;5.80;;;;;;;-144.51;100.00;69251.94;4887717;29;20045;-80
2021/10/15 04:36:08;;;;;;;20.63;5.18;;;;;;;-144.51;100.00;69251.94;4905481;29;20049;-80
2021/10/15 04:38:53;;;;;;;15.55;5.75;;;;;;;-144.51;100.00;69251.94;4884602;29;20426;-81
2021/10/15 04:41:38;;;;;;;9.20;4.53;;;;;;;-144.51;100.00;69251.94;4897511;29;20052;-80
2021/10/15 04:44:23;;;;;;;19.15;4.28;;;;;;;-144.51;100.00;69251.94;4897955;29;20052;-81
2021/10/15 04:47:07;;;;;;;8.88;4.72;;;;;;;-144.51;100.00;69251.94;4878535;29;20436;-81
2021/10/15 04:49:52;;;;;;;14.95;5.88;;;;;;;-144.51;100.00;69251.94;4895837;29;20429;-80
2021/10/15 04:52:37;;;;;;;10.90;5.57;;;;;;;-144.51;100.00;69251.94;4879644;29;20048;-81
2021/10/15 04:55:22;;;;;;;10.48;5.10;;;;;;;-144.51;100.00;69251.94;4889384;29;20292;-80
2021/10/15 04:58:07;;;;;;;7.00;3.67;;;;;;;-144.51;100.00;69251.94;4900301;29;20040;-80
2021/10/15 05:00:52;;;;;;;10.18;5.28;;;;;;;-144.51;100.00;69251.94;4908663;29;20041;-80
2021/10/15 05:03:37;;;;;;;12.82;4.68;;;;;;;-144.51;100.00;69251.94;4890349;29;20049;-81
2021/10/15 05:06:22;;;;;;;10.27;3.83;;;;;;;-144.51;100.00;69251.94;4891200;29;20041;-81
2021/10/15 05:11:54;;;;;;;18.52;6.38;;;;;;;-144.51;100.00;69251.94;4903493;29;20056;-82
2021/10/15 05:14:39;;;;;;;16.38;7.78;;;;;;;-144.51;100.00;69251.94;4902319;29;20048;-81
2021/10/15 05:17:24;;;;;;;27.08;8.45;;;;;;;-144.51;100.00;69251.94;4902564;29;20045;-78
2021/10/15 05:20:14;;;;;;;14.90;4.78;;;;;;;-144.51;100.00;69251.94;4883604;29;20053;-79
2021/10/15 05:22:59;;;;;;;14.65;7.18;;;;;;;-144.51;100.00;69251.94;4892298;29;20454;-79
2021/10/15 05:25:44;;;;;;;18.45;6.07;;;;;;;-144.51;100.00;69251.94;4894850;29;20048;-80
2021/10/15 05:28:29;;;;;;;12.35;4.97;;;;;;;-144.51;100.00;69251.94;4887389;29;20036;-82
2021/10/15 05:31:14;;;;;;;13.15;4.93;;;;;;;-144.51;100.00;69251.94;4892067;29;20060;-81
2021/10/15 05:33:58;;;;;;;8.85;5.18;;;;;;;-144.51;100.00;69251.94;4892997;29;20045;-79
2021/10/15 05:36:43;;;;;;;12.88;6.57;;;;;;;-144.51;100.00;69251.94;4876091;29;20048;-81
2021/10/15 05:39:28;;;;;;;17.80;7.80;;;;;;;-144.51;100.00;69251.94;4889730;29;20049;-78
2021/10/15 05:42:14;;;;;;;8.50;4.85;;;;;;;-144.51;100.00;69251.94;4887575;29;20491;-79
2021/10/15 05:44:59;;;;;;;10.80;6.97;;;;;;;-144.51;100.00;69251.94;4886253;29;20052;-79
2021/10/15 05:47:43;;;;;;;6.85;4.50;;;;;;;-144.51;100.00;69251.94;4899199;29;20048;-80
2021/10/15 05:50:30;;;;;;;9.85;5.10;;;;;;;-144.51;100.00;69251.94;4896603;29;20048;-79
2021/10/15 05:53:17;;;;;;;22.73;7.70;;;;;;;-144.51;100.00;69251.94;4897327;29;20048;-78
2021/10/15 05:59:07;;;;;;;9.97;5.20;;;;;;;-144.51;100.00;69251.94;4861392;29;20045;-78
2021/10/15 06:01:56;;;;;;;10.70;5.32;;;;;;;-144.51;100.00;69251.94;4896731;29;20048;-79
2021/10/15 06:16:45;;;;;;;10.40;7.10;;;;;;;-144.51;100.00;69251.94;4894836;29;20074;-77
2021/10/15 06:19:34;;;;;;;18.80;7.50;;;;;;;-144.51;100.00;69251.94;4896568;29;20037;-77
2021/10/15 06:22:21;;;;;;;12.35;6.60;;;;;;;-144.51;100.00;69251.94;4904202;29;20048;-77
2021/10/15 06:25:06;;;;;;;12.35;7.10;;;;;;;-144.51;100.00;69251.94;4898606;29;20840;-78
2021/10/15 06:27:51;;;;;;;13.07;5.32;;;;;;;-144.51;100.00;69251.94;4897043;29;20048;-78
2021/10/15 06:30:36;;;;;;;18.50;4.78;;;;;;;-144.51;100.00;69251.94;4898629;29;20418;-78
2021/10/15 06:33:21;;;;;;;12.23;7.15;;;;;;;-144.51;100.00;69251.94;4897363;29;20069;-78
2021/10/15 06:36:06;;;;;;;12.02;5.82;;;;;;;-144.51;100.00;69251.94;4902204;29;20052;-77
2021/10/15 06:38:51;;;;;;;8.68;6.15;;;;;;;-144.51;100.00;69251.94;4894746;29;20052;-79
2021/10/15 06:41:35;;;;;;;15.35;5.85;;;;;;;-144.51;100.00;69251.94;4895375;29;20300;-78
2021/10/15 06:44:24;;;;;;;22.38;8.57;;;;;;;-144.51;100.00;69251.94;4910888;29;20044;-77
2021/10/15 06:47:09;;;;;;;20.38;5.68;;;;;;;-144.51;100.00;69251.94;4896113;29;20049;-77
2021/10/15 06:49:55;;;;;;;23.63;6.70;;;;;;;-144.51;100.00;69251.94;4899441;29;20044;-77
2021/10/15 06:52:46;;;;;;;29.30;8.60;;;;;;;-144.51;100.00;69251.94;4892401;29;20049;-78
2021/10/15 06:55:31;;;;;;;18.95;7.60;;;;;;;-144.51;100.00;69251.94;4894093;29;20045;-79
2021/10/15 06:58:17;;;;;;;23.85;6.72;;;;;;;-144.51;100.00;69251.94;4896917;29;20049;-79
2021/10/15 07:01:02;;;;;;;22.17;7.80;;;;;;;-144.51;100.00;69251.94;4890964;29;20049;-78
2021/10/15 07:03:48;;;;;;;29.35;9.73;;;;;;;-144.51;100.00;69251.94;4908904;29;20045;-79
2021/10/15 07:06:32;;;;;;;23.85;6.85;;;;;;;-144.51;100.00;69251.94;4904835;29;20041;-78
2021/10/15 07:09:16;;;;;;;21.75;9.30;;;;;;;-144.51;100.00;69251.94;4892140;29;20041;-79
2021/10/15 07:12:01;;;;;;;17.42;6.57;;;;;;;-144.51;100.00;69251.94;4895698;29;20049;-77
2021/10/15 07:14:46;;;;;;;19.45;7.82;;;;;;;-144.51;100.00;69251.94;4894063;29;20056;-75
2021/10/15 07:17:31;;;;;;;18.73;7.05;;;;;;;-144.51;100.00;69251.94;4894748;29;20056;-77
2021/10/15 07:20:16;;;;;;;;;;;;;;;-144.51;100.00;69251.94;4903577;29;20041;-79
2021/10/15 07:23:00;;;;;;;59.63;11.25;;;;;;;-144.51;100.00;69251.94;4885409;29;20389;-77
2021/10/15 07:25:45;;;;;;;18.67;9.18;;;;;;;-144.51;100.00;69251.94;4901104;29;20049;-78
2021/10/15 07:28:30;;;;;;;15.02;6.53;;;;;;;-144.51;100.00;69251.94;4899738;29;20037;-76
2021/10/15 07:31:15;;;;;;;11.77;6.85;;;;;;;-144.51;100.00;69251.94;4894013;29;20052;-76
2021/10/15 07:34:00;;;;;;;;;;;;;;;-144.51;100.00;69251.94;4905456;29;20539;-77
2021/10/15 07:36:44;;;;;;;20.73;9.95;;;;;;;-144.51;100.00;69251.94;4898018;29;19919;-77
2021/10/15 07:39:29;;;;;;;18.38;7.45;;;;;;;-144.51;100.00;69251.94;4895833;29;20044;-76
2021/10/15 07:42:14;;;;;;;13.32;7.55;;;;;;;-144.51;100.00;69251.94;4891917;29;20060;-76
2021/10/15 07:44:59;;;;;;;21.30;7.97;;;;;;;-144.51;100.00;69251.94;4886444;29;20426;-78
2021/10/15 07:47:45;;;;;;;19.08;7.85;;;;;;;-144.51;100.00;69251.94;4898216;29;20411;-77
2021/10/15 07:50:29;;;;;;;20.65;7.43;;;;;;;-144.51;100.00;69251.94;4897829;29;20036;-77
2021/10/15 07:53:14;;;;;;;15.27;10.20;;;;;;;-144.51;100.00;69251.94;4898624;29;20406;-78
2021/10/15 07:55:59;;;;;;;20.92;10.55;;;;;;;-144.51;100.00;69251.94;4894787;29;20048;-77
2021/10/15 07:58:44;;;;;;;20.05;6.82;;;;;;;-144.51;100.00;69251.94;4896182;29;20409;-75
2021/10/15 08:01:29;;;;;;;16.77;7.65;;;;;;;-144.51;100.00;69251.94;4891485;29;20040;-76
2021/10/15 08:04:14;;;;;;;24.27;8.00;;;;;;;-144.51;100.00;69251.94;4898092;29;20052;-76
2021/10/15 08:07:00;;;;;;;18.33;7.70;;;;;;;-144.51;100.00;69251.94;4897517;29;20048;-77
2021/10/15 08:09:45;;;;;;;20.10;9.27;;;;;;;-144.51;100.00;69251.94;4884279;29;20044;-77
2021/10/15 08:12:29;;;;;;;19.42;9.52;;;;;;;-144.51;100.00;69251.94;4881318;29;20056;-77
2021/10/15 08:15:18;;;;;;;18.55;8.05;;;;;;;-144.51;100.00;69251.94;4896056;29;20253;-77
2021/10/15 08:18:02;;;;;;;17.52;10.43;;;;;;;-144.51;100.00;69251.94;4902051;29;20045;-78
2021/10/15 08:20:47;;;;;;;14.45;7.68;;;;;;;-144.51;100.00;69251.94;4894402;29;20049;-77
2021/10/15 08:23:35;;;;;;;18.55;9.63;;;;;;;-144.51;100.00;69251.94;4899485;29;20048;-77
2021/10/15 08:26:20;;;;;;;18.42;10.45;;;;;;;-144.51;100.00;69251.94;4896387;29;20052;-76
2021/10/15 08:29:05;;;;;;;15.10;7.60;;;;;;;-144.51;100.00;69251.94;4896189;29;20508;-76
2021/10/15 08:31:51;;;;;;;23.05;9.35;;;;;;;-144.51;100.00;69251.94;4893652;29;20056;-75
2021/10/15 08:34:36;;;;;;;19.60;10.55;;;;;;;-144.51;100.00;69251.94;4892021;29;20041;-77
2021/10/15 08:37:20;;;;;;;15.85;7.18;;;;;;;-144.51;100.00;69251.94;4891875;29;20045;-76
2021/10/15 08:40:07;;;;;;;19.02;9.32;;;;;;;-144.51;100.00;69251.94;4899122;29;20516;-75
2021/10/15 08:42:56;;;;;;;18.77;10.43;;;;;;;-144.51;100.00;69251.94;4897389;29;20041;-76
2021/10/15 08:45:41;;;;;;;106.15;12.68;;;;;;;-144.51;100.00;69251.94;4892924;29;20235;-76
2021/10/15 08:48:26;;;;;;;16.25;8.48;;;;;;;-144.51;100.00;69251.94;4890126;29;20044;-76
2021/10/15 08:51:11;;;;;;;15.02;7.75;;;;;;;-144.51;100.00;69251.94;4895899;29;20057;-80
2021/10/15 08:54:00;;;;;;;12.73;7.50;;;;;;;-144.51;100.00;69251.94;4899774;29;20037;-75
2021/10/15 08:56:45;;;;;;;21.50;7.78;;;;;;;-144.51;100.00;69251.94;4884777;29;20049;-76
2021/10/15 08:59:39;;;;;;;18.80;8.65;;;;;;;-144.51;100.00;69251.94;4886865;29;20040;-75
2021/10/15 09:02:25;;;;;;;20.38;9.73;;;;;;;-144.51;100.00;69251.94;4886300;29;20502;-76
2021/10/15 09:05:09;;;;;;;22.58;8.65;;;;;;;-144.51;100.00;69251.94;4897905;29;20442;-75
2021/10/15 09:07:54;;;;;;;13.00;6.22;;;;;;;-144.51;100.00;69251.94;4888312;29;20485;-76
2021/10/15 09:10:39;;;;;;;15.60;8.13;;;;;;;-144.51;100.00;69251.94;4897363;29;20045;-75
2021/10/15 09:13:25;;;;;;;15.70;7.28;;;;;;;-144.51;100.00;69251.94;4884986;29;20502;-76
2021/10/15 09:16:10;;;;;;;15.15;8.50;;;;;;;-144.51;100.00;69251.94;4888276;29;20502;-76
2021/10/15 09:18:54;;;;;;;16.42;8.00;;;;;;;-144.51;100.00;69251.94;4885475;29;20044;-74
2021/10/15 09:21:39;;;;;;;21.27;9.27;;;;;;;-144.51;100.00;69251.94;4892936;29;20040;-75
2021/10/15 09:24:38;;;;;;;24.17;8.52;;;;;;;-144.51;100.00;69251.94;4893145;29;20790;-76
2021/10/15 09:27:34;;;;;;;14.52;9.57;;;;;;;-144.51;100.00;69251.94;4880531;29;20053;-75
2021/10/15 09:30:24;;;;;;;24.08;10.30;;;;;;;-144.51;100.00;69251.94;4877846;29;20510;-75
2021/10/15 09:33:09;;;;;;;20.42;10.82;;;;;;;-144.51;100.00;69251.94;4878416;29;20052;-75
2021/10/15 09:36:04;;;;;;;17.75;9.25;;;;;;;-144.51;100.00;69251.94;4879725;29;20040;-76
2021/10/15 09:38:52;;;;;;;14.15;8.73;;;;;;;-144.51;100.00;69251.94;4890047;29;20041;-75
2021/10/15 09:41:39;;;;;;;15.80;9.48;;;;;;;-144.51;100.00;69251.94;4894204;29;20049;-76
2021/10/15 09:44:34;;;;;;;14.18;8.50;;;;;;;-144.51;100.00;69251.94;4889191;29;20048;-77
2021/10/15 09:47:24;;;;;;;17.63;8.73;;;;;;;-144.51;100.00;69251.94;4892680;29;20045;-77
2021/10/15 09:50:10;;;;;;;17.10;10.30;;;;;;;-144.51;100.00;69251.94;4880477;29;20044;-75
2021/10/15 09:52:57;;;;;;;16.80;10.23;;;;;;;-144.51;100.00;69251.94;4896766;29;20509;-76
2021/10/15 09:55:43;;;;;;;19.05;9.88;;;;;;;-144.51;100.00;69251.94;4891105;29;20045;-78
2021/10/15 09:58:28;;;;;;;29.20;10.73;;;;;;;-144.51;100.00;69251.94;4897562;29;20041;-76
2021/10/15 10:01:13;;;;;;;17.60;10.02;;;;;;;-144.51;100.00;69251.94;4895048;29;20048;-77
2021/10/15 10:03:58;;;;;;;10.70;7.40;;;;;;;-144.51;100.00;69251.94;4936191;23;20389;-64
2021/10/15 10:06:43;;;;;;;15.13;10.80;;;;;;;-144.51;100.00;69251.94;4890988;29;20504;-64
2021/10/15 10:09:29;;;;;;;19.73;8.85;;;;;;;-144.51;100.00;69251.94;4878889;29;20041;-64
2021/10/15 10:12:15;;;;;;;21.48;10.85;;;;;;;-144.51;100.00;69251.94;4889840;29;20053;-64
2021/10/15 10:15:00;;;;;;;15.98;10.32;;;;;;;-144.51;100.00;69251.94;4896553;29;20052;-64
2021/10/15 10:18:20;;;;;;;17.55;8.65;;;;;;;-144.51;100.00;69251.94;4895179;29;20056;-64
2021/10/15 10:21:33;;;;;;;21.02;11.15;;;;;;;-144.51;100.00;69251.94;4894159;29;20041;-64
2021/10/15 10:24:25;;;;;;;20.45;10.85;;;;;;;-144.51;100.00;69251.94;4897505;29;20052;-64
2021/10/15 10:27:10;;;;;;;17.95;10.20;;;;;;;-144.51;100.00;69251.94;4902690;29;20040;-64
2021/10/15 10:29:56;;;;;;;15.10;7.38;;;;;;;-144.51;100.00;69251.94;4902706;29;20045;-64
2021/10/15 10:32:59;;;;;;;17.17;10.40;;;;;;;-144.51;100.00;69251.94;4890963;29;20044;-64
2021/10/15 10:35:44;;;;;;;34.00;11.85;;;;;;;-144.51;100.00;69251.94;4907144;29;20056;-64
2021/10/15 10:38:30;;;;;;;;;;;;;;;-144.51;100.00;69251.94;4896948;29;20053;-64
2021/10/15 10:41:17;;;;;;;16.00;10.35;;;;;;;-144.51;100.00;69251.94;4890126;29;19915;-64
2021/10/15 10:44:05;;;;;;;19.92;10.38;;;;;;;-144.51;100.00;69251.94;4901557;29;20492;-64
2021/10/15 10:47:15;;;;;;;18.13;10.48;;;;;;;-144.51;100.00;69251.94;4906796;29;20044;-64
2021/10/15 10:50:00;;;;;;;18.52;11.25;;;;;;;-144.51;100.00;69251.94;4896408;29;20485;-64
2021/10/15 10:52:47;;;;;;;18.90;11.65;;;;;;;-144.51;100.00;69251.94;4894184;29;20045;-64
2021/10/15 10:55:42;;;;;;;20.45;10.85;;;;;;;-144.51;100.00;69251.94;4878103;29;20060;-64
2021/10/15 10:58:37;;;;;;;16.05;9.45;;;;;;;-144.51;100.00;69251.94;4881097;29;20423;-64
2021/10/15 11:01:28;;;;;;;18.00;10.55;;;;;;;-144.51;100.00;69251.94;4895349;29;20498;-64
2021/10/15 11:04:36;;;;;;;18.17;11.73;;;;;;;-144.51;100.00;69251.94;4899548;29;20412;-64
2021/10/15 11:07:23;;;;;;;53.22;12.18;;;;;;;-144.51;100.00;69251.94;4899212;29;20037;-64
2021/10/15 11:10:22;;;;;;;31.30;11.07;;;;;;;-144.51;100.00;69251.94;4898661;29;20052;-64
2021/10/15 11:13:07;;;;;;;17.00;10.52;;;;;;;-144.51;100.00;69251.94;4898705;29;20044;-64
2021/10/15 11:15:51;;;;;;;33.72;9.25;;;;;;;-144.51;100.00;69251.94;4901519;29;20056;-64
2021/10/15 11:18:37;;;;;;;26.63;10.88;;;;;;;-144.51;100.00;69251.94;4885955;29;20044;-64
2021/10/15 11:21:23;;;;;;;17.65;10.68;;;;;;;-144.51;100.00;69251.94;4890068;29;20400;-64
2021/10/15 11:24:14;;;;;;;26.98;10.57;;;;;;;-144.51;100.00;69251.94;4899396;29;20048;-64
2021/10/15 11:26:59;;;;;;;14.65;9.93;;;;;;;-144.51;100.00;69251.94;4900800;29;20040;-64
2021/10/15 11:29:49;;;;;;;16.48;10.07;;;;;;;-144.51;100.00;69251.94;4903482;29;20516;-64
2021/10/15 11:32:44;;;;;;;15.20;10.55;;;;;;;-144.51;100.00;69251.94;4893494;29;20040;-63
2021/10/15 11:35:35;;;;;;;11.18;8.20;;;;;;;-144.51;100.00;69251.94;4899111;29;20052;-63
2021/10/15 11:38:25;;;;;;;25.92;10.43;;;;;;;-144.51;100.00;69251.94;4890417;29;20036;-63
2021/10/15 11:41:10;;;;;;;16.10;10.80;;;;;;;-144.51;100.00;69251.94;4904371;29;20040;-63
2021/10/15 11:43:55;;;;;;;22.05;11.40;;;;;;;-144.51;100.00;69251.94;4899106;29;20500;-63
2021/10/15 11:46:40;;;;;;;23.77;10.15;;;;;;;-144.51;100.00;69251.94;4899804;29;20052;-63
2021/10/15 11:49:33;;;;;;;;;;;;;;;-144.51;100.00;69251.94;4901717;29;20056;-63
2021/10/15 11:52:18;;;;;;;16.85;9.95;;;;;;;-144.51;100.00;69251.94;4898824;29;19916;-63
2021/10/15 11:55:13;;;;;;;22.10;9.77;;;;;;;-144.51;100.00;69251.94;4898750;29;20049;-63
2021/10/15 11:58:21;;;;;;;20.42;9.55;;;;;;;-144.51;100.00;69251.94;4901389;29;20404;-63
2021/10/15 12:01:14;;;;;;;19.95;8.68;;;;;;;-144.51;100.00;69251.94;4898411;29;20427;-63
2021/10/15 12:04:00;;;;;;;15.95;9.18;;;;;;;-144.51;100.00;69251.94;4895978;29;20496;-63
2021/10/15 12:06:47;;;;;;;13.20;8.45;;;;;;;-144.51;100.00;69251.94;4892366;29;20040;-63
2021/10/15 12:09:32;;;;;;;17.08;8.85;;;;;;;-144.51;100.00;69251.94;4892963;29;20412;-63
2021/10/15 12:12:17;;;;;;;17.42;8.32;;;;;;;-144.51;100.00;69251.94;4879944;29;20053;-63
2021/10/15 12:15:02;;;;;;;13.77;8.02;;;;;;;-144.51;100.00;69251.94;4879832;29;20045;-64
2021/10/15 12:17:47;;;;;;;15.38;8.77;;;;;;;-144.51;100.00;69251.94;4879795;29;20049;-62
2021/10/15 12:20:32;;;;;;;12.00;9.02;;;;;;;-144.51;100.00;69251.94;4879726;29;20497;-63
2021/10/15 12:23:17;;;;;;;10.63;8.40;;;;;;;-144.51;100.00;69251.94;4879619;29;20045;-63
2021/10/15 12:26:19;;;;;;;16.48;8.32;;;;;;;-144.51;100.00;69251.94;4879417;29;20417;-63
2021/10/15 12:29:23;;;;;;;16.92;8.45;;;;;;;-144.51;100.00;69251.94;4901068;29;20491;-63
2021/10/15 12:32:15;;;;;;;14.98;8.40;;;;;;;-144.51;100.00;69251.94;4904275;29;20032;-63
2021/10/15 12:35:16;;;;;;;12.15;8.48;;;;;;;-144.51;100.00;69251.94;4895261;29;20048;-63
2021/10/15 12:38:02;;;;;;;14.77;8.93;;;;;;;-144.51;100.00;69251.94;4902535;29;20036;-63
2021/10/15 12:40:47;;;;;;;11.32;8.68;;;;;;;-144.51;100.00;69251.94;4892726;29;20045;-63
2021/10/15 12:43:32;;;;;;;16.40;9.00;;;;;;;-144.51;100.00;69251.94;4918877;29;20044;-63
2021/10/15 12:46:17;;;;;;;108.00;11.90;;;;;;;-144.51;100.00;69251.94;4894837;29;20044;-63
2021/10/15 12:49:02;;;;;;;12.77;8.10;;;;;;;-144.51;100.00;69251.94;4895181;29;20044;-63
2021/10/15 12:51:47;;;;;;;18.98;8.63;;;;;;;-144.51;100.00;69251.94;4892990;29;20497;-62